sensor_id;sensor_type;location;lat;lon;timestamp;temperature;humidity
54429;DHT22;40337;52.978;6.310;2023-04-08T00:01:01;4.40;99.90
54429;DHT22;40337;52.978;6.310;2023-04-08T00:03:27;4.30;99.90
54429;DHT22;40337;52.978;6.310;2023-04-08T00:05:53;4.30;99.90
54429;DHT22;40337;52.978;6.310;2023-04-08T00:08:18;4.30;99.90
54429;DHT22;40337;52.978;6.310;2023-04-08T00:10:44;4.20;99.90
54429;DHT22;40337;52.978;6.310;2023-04-08T00:13:09;4.20;99.90
54429;DHT22;40337;52.978;6.310;2023-04-08T00:15:36;4.20;99.90
54429;DHT22;40337;52.978;6.310;2023-04-08T00:18:01;4.10;99.90
54429;DHT22;40337;52.978;6.310;2023-04-08T00:20:27;4.10;99.90
54429;DHT22;40337;52.978;6.310;2023-04-08T00:22:52;4.10;99.90
54429;DHT22;40337;52.978;6.310;2023-04-08T00:25:18;4.00;99.90
54429;DHT22;40337;52.978;6.310;2023-04-08T00:27:44;4.00;99.90
54429;DHT22;40337;52.978;6.310;2023-04-08T00:30:09;4.00;99.90
54429;DHT22;40337;52.978;6.310;2023-04-08T00:32:36;4.00;99.90
54429;DHT22;40337;52.978;6.310;2023-04-08T00:35:02;4.00;99.90
54429;DHT22;40337;52.978;6.310;2023-04-08T00:37:28;4.00;99.90
54429;DHT22;40337;52.978;6.310;2023-04-08T00:39:54;4.00;99.90
54429;DHT22;40337;52.978;6.310;2023-04-08T00:42:19;4.00;99.90
54429;DHT22;40337;52.978;6.310;2023-04-08T00:44:46;4.00;99.90
54429;DHT22;40337;52.978;6.310;2023-04-08T00:47:12;4.00;99.90
54429;DHT22;40337;52.978;6.310;2023-04-08T00:49:38;4.10;99.90
54429;DHT22;40337;52.978;6.310;2023-04-08T00:52:04;4.10;99.90
54429;DHT22;40337;52.978;6.310;2023-04-08T00:54:30;4.10;99.90
54429;DHT22;40337;52.978;6.310;2023-04-08T00:56:56;4.10;99.90
54429;DHT22;40337;52.978;6.310;2023-04-08T00:59:24;4.10;99.90
54429;DHT22;40337;52.978;6.310;2023-04-08T01:02:13;4.10;99.90
54429;DHT22;40337;52.978;6.310;2023-04-08T01:04:52;4.10;99.90
54429;DHT22;40337;52.978;6.310;2023-04-08T01:07:29;4.00;99.90
54429;DHT22;40337;52.978;6.310;2023-04-08T01:09:58;4.00;99.90
54429;DHT22;40337;52.978;6.310;2023-04-08T01:12:29;3.90;99.90
54429;DHT22;40337;52.978;6.310;2023-04-08T01:14:59;3.90;99.90
54429;DHT22;40337;52.978;6.310;2023-04-08T01:17:26;3.80;99.90
54429;DHT22;40337;52.978;6.310;2023-04-08T01:19:53;3.90;99.90
54429;DHT22;40337;52.978;6.310;2023-04-08T01:25:14;3.80;99.90
54429;DHT22;40337;52.978;6.310;2023-04-08T01:27:42;3.70;99.90
54429;DHT22;40337;52.978;6.310;2023-04-08T01:30:08;3.70;99.90
54429;DHT22;40337;52.978;6.310;2023-04-08T01:32:35;3.70;99.90
54429;DHT22;40337;52.978;6.310;2023-04-08T01:35:02;3.70;99.90
54429;DHT22;40337;52.978;6.310;2023-04-08T01:37:28;3.70;99.90
54429;DHT22;40337;52.978;6.310;2023-04-08T01:39:55;3.80;99.90
54429;DHT22;40337;52.978;6.310;2023-04-08T01:42:23;3.70;99.90
54429;DHT22;40337;52.978;6.310;2023-04-08T01:44:51;3.70;99.90
54429;DHT22;40337;52.978;6.310;2023-04-08T01:47:18;3.70;99.90
54429;DHT22;40337;52.978;6.310;2023-04-08T01:49:44;3.70;99.90
54429;DHT22;40337;52.978;6.310;2023-04-08T01:52:10;3.70;99.90
54429;DHT22;40337;52.978;6.310;2023-04-08T01:54:36;3.70;99.90
54429;DHT22;40337;52.978;6.310;2023-04-08T01:57:04;3.60;99.90
54429;DHT22;40337;52.978;6.310;2023-04-08T01:59:34;3.70;99.90
54429;DHT22;40337;52.978;6.310;2023-04-08T02:02:01;3.70;99.90
54429;DHT22;40337;52.978;6.310;2023-04-08T02:04:29;3.70;99.90
54429;DHT22;40337;52.978;6.310;2023-04-08T02:06:55;3.60;99.90
54429;DHT22;40337;52.978;6.310;2023-04-08T02:09:21;3.70;99.90
54429;DHT22;40337;52.978;6.310;2023-04-08T02:11:46;3.60;99.90
54429;DHT22;40337;52.978;6.310;2023-04-08T02:14:12;3.60;99.90
54429;DHT22;40337;52.978;6.310;2023-04-08T02:16:48;3.60;99.90
54429;DHT22;40337;52.978;6.310;2023-04-08T02:19:29;3.60;99.90
54429;DHT22;40337;52.978;6.310;2023-04-08T02:22:04;3.60;99.90
54429;DHT22;40337;52.978;6.310;2023-04-08T02:24:32;3.50;99.90
54429;DHT22;40337;52.978;6.310;2023-04-08T02:26:59;3.50;99.90
54429;DHT22;40337;52.978;6.310;2023-04-08T02:29:25;3.40;99.90
54429;DHT22;40337;52.978;6.310;2023-04-08T02:31:54;3.40;99.90
54429;DHT22;40337;52.978;6.310;2023-04-08T02:34:21;3.40;99.90
54429;DHT22;40337;52.978;6.310;2023-04-08T02:36:48;3.30;99.90
54429;DHT22;40337;52.978;6.310;2023-04-08T02:39:15;3.40;99.90
54429;DHT22;40337;52.978;6.310;2023-04-08T02:41:41;3.30;99.90
54429;DHT22;40337;52.978;6.310;2023-04-08T02:44:07;3.30;99.90
54429;DHT22;40337;52.978;6.310;2023-04-08T02:46:33;3.30;99.90
54429;DHT22;40337;52.978;6.310;2023-04-08T02:48:59;3.20;99.90
54429;DHT22;40337;52.978;6.310;2023-04-08T02:51:24;3.20;99.90
54429;DHT22;40337;52.978;6.310;2023-04-08T02:53:50;3.20;99.90
54429;DHT22;40337;52.978;6.310;2023-04-08T02:56:16;3.20;99.90
54429;DHT22;40337;52.978;6.310;2023-04-08T02:58:41;3.20;99.90
54429;DHT22;40337;52.978;6.310;2023-04-08T03:01:07;3.10;99.90
54429;DHT22;40337;52.978;6.310;2023-04-08T03:03:33;3.10;99.90
54429;DHT22;40337;52.978;6.310;2023-04-08T03:05:59;3.10;99.90
54429;DHT22;40337;52.978;6.310;2023-04-08T03:08:24;3.10;99.90
54429;DHT22;40337;52.978;6.310;2023-04-08T03:10:50;3.10;99.90
54429;DHT22;40337;52.978;6.310;2023-04-08T03:13:16;3.10;99.90
54429;DHT22;40337;52.978;6.310;2023-04-08T03:15:42;3.10;99.90
54429;DHT22;40337;52.978;6.310;2023-04-08T03:18:07;3.10;99.90
54429;DHT22;40337;52.978;6.310;2023-04-08T03:20:33;3.10;99.90
54429;DHT22;40337;52.978;6.310;2023-04-08T03:22:59;3.10;99.90
54429;DHT22;40337;52.978;6.310;2023-04-08T03:25:25;3.10;99.90
54429;DHT22;40337;52.978;6.310;2023-04-08T03:27:50;3.10;99.90
54429;DHT22;40337;52.978;6.310;2023-04-08T03:30:16;3.10;99.90
54429;DHT22;40337;52.978;6.310;2023-04-08T03:32:41;3.10;99.90
54429;DHT22;40337;52.978;6.310;2023-04-08T03:35:07;3.10;99.90
54429;DHT22;40337;52.978;6.310;2023-04-08T03:37:33;3.10;99.90
54429;DHT22;40337;52.978;6.310;2023-04-08T03:39:59;3.10;99.90
54429;DHT22;40337;52.978;6.310;2023-04-08T03:42:24;3.00;99.90
54429;DHT22;40337;52.978;6.310;2023-04-08T03:44:50;3.00;99.90
54429;DHT22;40337;52.978;6.310;2023-04-08T03:47:15;3.00;99.90
54429;DHT22;40337;52.978;6.310;2023-04-08T03:49:41;3.00;99.90
54429;DHT22;40337;52.978;6.310;2023-04-08T03:52:06;3.00;99.90
54429;DHT22;40337;52.978;6.310;2023-04-08T03:54:32;3.00;99.90
54429;DHT22;40337;52.978;6.310;2023-04-08T03:56:58;3.00;99.90
54429;DHT22;40337;52.978;6.310;2023-04-08T03:59:23;2.90;99.90
54429;DHT22;40337;52.978;6.310;2023-04-08T04:01:49;2.90;99.90
54429;DHT22;40337;52.978;6.310;2023-04-08T04:04:15;2.90;99.90
54429;DHT22;40337;52.978;6.310;2023-04-08T04:06:41;2.90;99.90
54429;DHT22;40337;52.978;6.310;2023-04-08T04:09:06;2.90;99.90
54429;DHT22;40337;52.978;6.310;2023-04-08T04:11:33;2.90;99.90
54429;DHT22;40337;52.978;6.310;2023-04-08T04:14:00;2.90;99.90
54429;DHT22;40337;52.978;6.310;2023-04-08T04:16:25;2.90;99.90
54429;DHT22;40337;52.978;6.310;2023-04-08T04:18:52;3.00;99.90
54429;DHT22;40337;52.978;6.310;2023-04-08T04:21:18;3.00;99.90
54429;DHT22;40337;52.978;6.310;2023-04-08T04:23:43;3.00;99.90
54429;DHT22;40337;52.978;6.310;2023-04-08T04:26:10;3.00;99.90
54429;DHT22;40337;52.978;6.310;2023-04-08T04:28:36;3.00;99.90
54429;DHT22;40337;52.978;6.310;2023-04-08T04:31:01;3.00;99.90
54429;DHT22;40337;52.978;6.310;2023-04-08T04:33:27;3.00;99.90
54429;DHT22;40337;52.978;6.310;2023-04-08T04:35:52;3.00;99.90
54429;DHT22;40337;52.978;6.310;2023-04-08T04:38:18;2.90;99.90
54429;DHT22;40337;52.978;6.310;2023-04-08T04:40:43;2.90;99.90
54429;DHT22;40337;52.978;6.310;2023-04-08T04:43:09;2.90;99.90
54429;DHT22;40337;52.978;6.310;2023-04-08T04:45:35;2.90;99.90
54429;DHT22;40337;52.978;6.310;2023-04-08T04:48:01;2.90;99.90
54429;DHT22;40337;52.978;6.310;2023-04-08T04:50:28;2.90;99.90
54429;DHT22;40337;52.978;6.310;2023-04-08T04:52:53;2.90;99.90
54429;DHT22;40337;52.978;6.310;2023-04-08T04:55:19;2.90;99.90
54429;DHT22;40337;52.978;6.310;2023-04-08T04:57:47;2.90;99.90
54429;DHT22;40337;52.978;6.310;2023-04-08T05:00:13;2.90;99.90
54429;DHT22;40337;52.978;6.310;2023-04-08T05:02:38;2.90;99.90
54429;DHT22;40337;52.978;6.310;2023-04-08T05:05:04;3.00;99.90
54429;DHT22;40337;52.978;6.310;2023-04-08T05:07:30;3.00;99.90
54429;DHT22;40337;52.978;6.310;2023-04-08T05:09:55;3.00;99.90
54429;DHT22;40337;52.978;6.310;2023-04-08T05:12:21;3.00;99.90
54429;DHT22;40337;52.978;6.310;2023-04-08T05:14:46;3.00;99.90
54429;DHT22;40337;52.978;6.310;2023-04-08T05:17:12;3.00;99.90
54429;DHT22;40337;52.978;6.310;2023-04-08T05:19:38;3.00;99.90
54429;DHT22;40337;52.978;6.310;2023-04-08T05:22:03;3.00;99.90
54429;DHT22;40337;52.978;6.310;2023-04-08T05:24:29;2.90;99.90
54429;DHT22;40337;52.978;6.310;2023-04-08T05:26:55;2.90;99.90
54429;DHT22;40337;52.978;6.310;2023-04-08T05:29:22;3.00;99.90
54429;DHT22;40337;52.978;6.310;2023-04-08T05:31:47;3.00;99.90
54429;DHT22;40337;52.978;6.310;2023-04-08T05:34:13;3.00;99.90
54429;DHT22;40337;52.978;6.310;2023-04-08T05:36:40;3.00;99.90
54429;DHT22;40337;52.978;6.310;2023-04-08T05:39:05;3.00;99.90
54429;DHT22;40337;52.978;6.310;2023-04-08T05:41:31;3.00;99.90
54429;DHT22;40337;52.978;6.310;2023-04-08T05:43:56;3.00;99.90
54429;DHT22;40337;52.978;6.310;2023-04-08T05:46:22;3.00;99.90
54429;DHT22;40337;52.978;6.310;2023-04-08T05:48:48;3.00;99.90
54429;DHT22;40337;52.978;6.310;2023-04-08T05:51:14;3.10;99.90
54429;DHT22;40337;52.978;6.310;2023-04-08T05:53:40;3.10;99.90
54429;DHT22;40337;52.978;6.310;2023-04-08T05:56:06;3.10;99.90
54429;DHT22;40337;52.978;6.310;2023-04-08T05:58:32;3.20;99.90
54429;DHT22;40337;52.978;6.310;2023-04-08T06:00:57;3.20;99.90
54429;DHT22;40337;52.978;6.310;2023-04-08T06:03:23;3.30;99.90
54429;DHT22;40337;52.978;6.310;2023-04-08T06:05:48;3.40;99.90
54429;DHT22;40337;52.978;6.310;2023-04-08T06:08:14;3.50;99.90
54429;DHT22;40337;52.978;6.310;2023-04-08T06:10:47;3.60;99.90
54429;DHT22;40337;52.978;6.310;2023-04-08T06:13:13;3.70;99.90
54429;DHT22;40337;52.978;6.310;2023-04-08T06:15:38;3.70;99.90
54429;DHT22;40337;52.978;6.310;2023-04-08T06:18:04;3.90;99.90
54429;DHT22;40337;52.978;6.310;2023-04-08T06:20:30;3.90;99.90
54429;DHT22;40337;52.978;6.310;2023-04-08T06:22:55;4.00;99.90
54429;DHT22;40337;52.978;6.310;2023-04-08T06:25:21;4.10;99.90
54429;DHT22;40337;52.978;6.310;2023-04-08T06:27:46;4.20;99.90
54429;DHT22;40337;52.978;6.310;2023-04-08T06:30:12;4.30;99.90
54429;DHT22;40337;52.978;6.310;2023-04-08T06:32:38;4.30;99.90
54429;DHT22;40337;52.978;6.310;2023-04-08T06:35:04;4.40;99.90
54429;DHT22;40337;52.978;6.310;2023-04-08T06:37:29;4.50;99.90
54429;DHT22;40337;52.978;6.310;2023-04-08T06:39:55;4.60;99.90
54429;DHT22;40337;52.978;6.310;2023-04-08T06:42:20;4.60;99.90
54429;DHT22;40337;52.978;6.310;2023-04-08T06:44:46;4.70;99.90
54429;DHT22;40337;52.978;6.310;2023-04-08T06:47:11;4.80;99.90
54429;DHT22;40337;52.978;6.310;2023-04-08T06:49:37;4.90;99.90
54429;DHT22;40337;52.978;6.310;2023-04-08T06:52:02;5.00;99.90
54429;DHT22;40337;52.978;6.310;2023-04-08T06:54:28;5.20;99.90
54429;DHT22;40337;52.978;6.310;2023-04-08T06:56:53;5.40;99.90
54429;DHT22;40337;52.978;6.310;2023-04-08T06:59:19;5.50;99.90
54429;DHT22;40337;52.978;6.310;2023-04-08T07:01:45;5.70;99.90
54429;DHT22;40337;52.978;6.310;2023-04-08T07:04:11;5.90;99.90
54429;DHT22;40337;52.978;6.310;2023-04-08T07:06:36;5.90;99.90
54429;DHT22;40337;52.978;6.310;2023-04-08T07:09:02;6.00;99.90
54429;DHT22;40337;52.978;6.310;2023-04-08T07:11:28;6.10;99.90
54429;DHT22;40337;52.978;6.310;2023-04-08T07:13:53;6.10;99.90
54429;DHT22;40337;52.978;6.310;2023-04-08T07:16:19;6.10;99.90
54429;DHT22;40337;52.978;6.310;2023-04-08T07:18:44;6.20;99.90
54429;DHT22;40337;52.978;6.310;2023-04-08T07:21:11;6.30;99.90
54429;DHT22;40337;52.978;6.310;2023-04-08T07:23:37;6.30;99.90
54429;DHT22;40337;52.978;6.310;2023-04-08T07:26:03;6.40;99.90
54429;DHT22;40337;52.978;6.310;2023-04-08T07:28:30;6.40;99.90
54429;DHT22;40337;52.978;6.310;2023-04-08T07:30:55;6.50;99.90
54429;DHT22;40337;52.978;6.310;2023-04-08T07:33:21;6.50;99.90
54429;DHT22;40337;52.978;6.310;2023-04-08T07:35:48;6.60;99.90
54429;DHT22;40337;52.978;6.310;2023-04-08T07:38:13;6.70;99.90
54429;DHT22;40337;52.978;6.310;2023-04-08T07:40:39;6.80;99.90
54429;DHT22;40337;52.978;6.310;2023-04-08T07:43:05;6.80;99.90
54429;DHT22;40337;52.978;6.310;2023-04-08T07:45:30;6.80;99.90
54429;DHT22;40337;52.978;6.310;2023-04-08T07:47:56;6.90;99.90
54429;DHT22;40337;52.978;6.310;2023-04-08T07:50:21;6.90;99.90
54429;DHT22;40337;52.978;6.310;2023-04-08T07:52:47;7.10;99.90
54429;DHT22;40337;52.978;6.310;2023-04-08T07:55:13;7.40;99.90
54429;DHT22;40337;52.978;6.310;2023-04-08T07:57:38;7.80;99.90
54429;DHT22;40337;52.978;6.310;2023-04-08T08:00:05;8.30;99.90
54429;DHT22;40337;52.978;6.310;2023-04-08T08:02:33;8.50;99.90
54429;DHT22;40337;52.978;6.310;2023-04-08T08:05:00;8.60;99.90
54429;DHT22;40337;52.978;6.310;2023-04-08T08:07:25;8.70;99.90
54429;DHT22;40337;52.978;6.310;2023-04-08T08:09:51;9.00;99.90
54429;DHT22;40337;52.978;6.310;2023-04-08T08:12:16;8.90;99.90
54429;DHT22;40337;52.978;6.310;2023-04-08T08:14:42;8.80;99.90
54429;DHT22;40337;52.978;6.310;2023-04-08T08:17:07;8.70;99.90
54429;DHT22;40337;52.978;6.310;2023-04-08T08:19:33;8.50;99.90
54429;DHT22;40337;52.978;6.310;2023-04-08T08:21:59;8.40;99.90
54429;DHT22;40337;52.978;6.310;2023-04-08T08:24:24;8.30;99.90
54429;DHT22;40337;52.978;6.310;2023-04-08T08:26:50;8.30;99.90
54429;DHT22;40337;52.978;6.310;2023-04-08T08:29:16;8.40;99.90
54429;DHT22;40337;52.978;6.310;2023-04-08T08:31:41;8.60;99.90
54429;DHT22;40337;52.978;6.310;2023-04-08T08:34:07;9.00;99.90
54429;DHT22;40337;52.978;6.310;2023-04-08T08:36:32;9.30;99.90
54429;DHT22;40337;52.978;6.310;2023-04-08T08:38:58;9.70;99.90
54429;DHT22;40337;52.978;6.310;2023-04-08T08:41:23;10.00;99.90
54429;DHT22;40337;52.978;6.310;2023-04-08T08:43:49;10.10;99.90
54429;DHT22;40337;52.978;6.310;2023-04-08T08:46:16;10.20;99.90
54429;DHT22;40337;52.978;6.310;2023-04-08T08:48:43;10.50;99.90
54429;DHT22;40337;52.978;6.310;2023-04-08T08:51:10;10.90;99.90
54429;DHT22;40337;52.978;6.310;2023-04-08T08:53:36;11.30;99.90
54429;DHT22;40337;52.978;6.310;2023-04-08T08:56:03;11.40;99.90
54429;DHT22;40337;52.978;6.310;2023-04-08T08:58:28;11.50;99.90
54429;DHT22;40337;52.978;6.310;2023-04-08T09:00:54;11.70;99.90
54429;DHT22;40337;52.978;6.310;2023-04-08T09:03:23;11.80;99.90
54429;DHT22;40337;52.978;6.310;2023-04-08T09:05:56;11.70;99.90
54429;DHT22;40337;52.978;6.310;2023-04-08T09:10:55;12.20;99.90
54429;DHT22;40337;52.978;6.310;2023-04-08T09:13:22;12.40;99.90
54429;DHT22;40337;52.978;6.310;2023-04-08T09:16:04;12.70;99.90
54429;DHT22;40337;52.978;6.310;2023-04-08T09:18:31;13.10;99.90
54429;DHT22;40337;52.978;6.310;2023-04-08T09:20:59;13.00;99.90
54429;DHT22;40337;52.978;6.310;2023-04-08T09:23:44;13.30;99.90
54429;DHT22;40337;52.978;6.310;2023-04-08T09:26:14;13.70;99.90
54429;DHT22;40337;52.978;6.310;2023-04-08T09:28:42;14.30;99.90
54429;DHT22;40337;52.978;6.310;2023-04-08T09:31:25;14.20;99.90
54429;DHT22;40337;52.978;6.310;2023-04-08T09:33:54;13.90;99.90
54429;DHT22;40337;52.978;6.310;2023-04-08T09:36:19;14.30;99.90
54429;DHT22;40337;52.978;6.310;2023-04-08T09:38:45;15.00;99.90
54429;DHT22;40337;52.978;6.310;2023-04-08T09:41:18;15.70;99.90
54429;DHT22;40337;52.978;6.310;2023-04-08T09:46:16;15.20;99.90
54429;DHT22;40337;52.978;6.310;2023-04-08T09:51:31;15.10;99.90
54429;DHT22;40337;52.978;6.310;2023-04-08T09:54:11;15.70;99.90
54429;DHT22;40337;52.978;6.310;2023-04-08T09:56:46;15.90;99.90
54429;DHT22;40337;52.978;6.310;2023-04-08T09:59:14;16.30;99.90
54429;DHT22;40337;52.978;6.310;2023-04-08T10:01:45;16.40;99.90
54429;DHT22;40337;52.978;6.310;2023-04-08T10:04:15;15.90;99.90
54429;DHT22;40337;52.978;6.310;2023-04-08T10:06:42;16.00;99.90
54429;DHT22;40337;52.978;6.310;2023-04-08T10:09:08;15.90;99.90
54429;DHT22;40337;52.978;6.310;2023-04-08T10:11:35;16.00;99.90
54429;DHT22;40337;52.978;6.310;2023-04-08T10:14:01;15.80;99.90
54429;DHT22;40337;52.978;6.310;2023-04-08T10:16:27;15.80;99.90
54429;DHT22;40337;52.978;6.310;2023-04-08T10:18:54;15.50;99.90
54429;DHT22;40337;52.978;6.310;2023-04-08T10:21:40;15.50;99.90
54429;DHT22;40337;52.978;6.310;2023-04-08T10:24:12;15.40;99.90
54429;DHT22;40337;52.978;6.310;2023-04-08T10:26:39;15.60;99.90
54429;DHT22;40337;52.978;6.310;2023-04-08T10:29:29;15.10;99.90
54429;DHT22;40337;52.978;6.310;2023-04-08T10:31:55;14.70;99.90
54429;DHT22;40337;52.978;6.310;2023-04-08T10:34:23;14.70;99.90
54429;DHT22;40337;52.978;6.310;2023-04-08T10:36:51;14.80;99.90
54429;DHT22;40337;52.978;6.310;2023-04-08T10:39:17;14.20;99.90
54429;DHT22;40337;52.978;6.310;2023-04-08T10:41:47;13.70;99.90
54429;DHT22;40337;52.978;6.310;2023-04-08T10:44:20;13.40;99.90
54429;DHT22;40337;52.978;6.310;2023-04-08T10:46:47;13.10;99.90
54429;DHT22;40337;52.978;6.310;2023-04-08T10:49:14;12.90;99.90
54429;DHT22;40337;52.978;6.310;2023-04-08T10:51:40;12.80;99.90
54429;DHT22;40337;52.978;6.310;2023-04-08T10:54:15;12.70;99.90
54429;DHT22;40337;52.978;6.310;2023-04-08T10:56:46;12.60;99.90
54429;DHT22;40337;52.978;6.310;2023-04-08T10:59:14;12.60;99.90
54429;DHT22;40337;52.978;6.310;2023-04-08T11:01:41;12.60;99.90
54429;DHT22;40337;52.978;6.310;2023-04-08T11:04:16;12.60;99.90
54429;DHT22;40337;52.978;6.310;2023-04-08T11:06:47;12.60;99.90
54429;DHT22;40337;52.978;6.310;2023-04-08T11:09:14;12.60;99.90
54429;DHT22;40337;52.978;6.310;2023-04-08T11:11:41;12.60;99.90
54429;DHT22;40337;52.978;6.310;2023-04-08T11:14:07;12.60;99.90
54429;DHT22;40337;52.978;6.310;2023-04-08T11:16:33;12.70;99.90
54429;DHT22;40337;52.978;6.310;2023-04-08T11:19:02;12.70;99.90
54429;DHT22;40337;52.978;6.310;2023-04-08T11:21:36;12.70;99.90
54429;DHT22;40337;52.978;6.310;2023-04-08T11:24:09;12.60;99.90
54429;DHT22;40337;52.978;6.310;2023-04-08T11:26:36;12.50;99.90
54429;DHT22;40337;52.978;6.310;2023-04-08T11:29:03;12.30;99.90
54429;DHT22;40337;52.978;6.310;2023-04-08T11:31:29;12.20;99.90
54429;DHT22;40337;52.978;6.310;2023-04-08T11:33:56;12.20;99.90
54429;DHT22;40337;52.978;6.310;2023-04-08T11:36:21;12.20;99.90
54429;DHT22;40337;52.978;6.310;2023-04-08T11:38:47;12.00;99.90
54429;DHT22;40337;52.978;6.310;2023-04-08T11:41:13;12.00;99.90
54429;DHT22;40337;52.978;6.310;2023-04-08T11:43:39;11.90;99.90
54429;DHT22;40337;52.978;6.310;2023-04-08T11:46:14;12.00;99.90
54429;DHT22;40337;52.978;6.310;2023-04-08T11:48:40;12.00;99.90
54429;DHT22;40337;52.978;6.310;2023-04-08T11:51:06;12.00;99.90
54429;DHT22;40337;52.978;6.310;2023-04-08T11:53:36;12.00;99.90
54429;DHT22;40337;52.978;6.310;2023-04-08T11:56:18;12.10;99.90
54429;DHT22;40337;52.978;6.310;2023-04-08T11:58:44;12.20;99.90
54429;DHT22;40337;52.978;6.310;2023-04-08T12:01:10;12.20;99.90
54429;DHT22;40337;52.978;6.310;2023-04-08T12:03:36;12.20;99.90
54429;DHT22;40337;52.978;6.310;2023-04-08T12:06:02;12.10;99.90
54429;DHT22;40337;52.978;6.310;2023-04-08T12:08:28;12.10;99.90
54429;DHT22;40337;52.978;6.310;2023-04-08T12:10:54;12.00;99.90
54429;DHT22;40337;52.978;6.310;2023-04-08T12:13:19;12.00;99.90
54429;DHT22;40337;52.978;6.310;2023-04-08T12:15:45;12.00;99.90
54429;DHT22;40337;52.978;6.310;2023-04-08T12:18:11;12.10;99.90
54429;DHT22;40337;52.978;6.310;2023-04-08T12:20:37;12.10;99.90
54429;DHT22;40337;52.978;6.310;2023-04-08T12:23:02;12.20;99.90
54429;DHT22;40337;52.978;6.310;2023-04-08T12:25:28;12.20;99.90
54429;DHT22;40337;52.978;6.310;2023-04-08T12:27:53;12.20;99.90
54429;DHT22;40337;52.978;6.310;2023-04-08T12:30:19;12.20;99.90
54429;DHT22;40337;52.978;6.310;2023-04-08T12:32:45;12.30;99.90
54429;DHT22;40337;52.978;6.310;2023-04-08T12:35:12;12.40;99.90
54429;DHT22;40337;52.978;6.310;2023-04-08T12:37:37;12.40;99.90
54429;DHT22;40337;52.978;6.310;2023-04-08T12:40:03;12.30;99.90
54429;DHT22;40337;52.978;6.310;2023-04-08T12:42:28;12.30;99.90
54429;DHT22;40337;52.978;6.310;2023-04-08T12:44:54;12.30;99.90
54429;DHT22;40337;52.978;6.310;2023-04-08T12:47:20;12.20;99.90
54429;DHT22;40337;52.978;6.310;2023-04-08T12:49:46;12.20;99.90
54429;DHT22;40337;52.978;6.310;2023-04-08T12:52:11;12.20;99.90
54429;DHT22;40337;52.978;6.310;2023-04-08T12:54:37;12.10;99.90
54429;DHT22;40337;52.978;6.310;2023-04-08T12:57:03;12.10;99.90
54429;DHT22;40337;52.978;6.310;2023-04-08T12:59:28;12.10;99.90
54429;DHT22;40337;52.978;6.310;2023-04-08T13:01:54;12.10;99.90
54429;DHT22;40337;52.978;6.310;2023-04-08T13:04:20;12.10;99.90
54429;DHT22;40337;52.978;6.310;2023-04-08T13:06:45;12.00;99.90
54429;DHT22;40337;52.978;6.310;2023-04-08T13:09:11;11.90;99.90
54429;DHT22;40337;52.978;6.310;2023-04-08T13:11:36;11.90;99.90
54429;DHT22;40337;52.978;6.310;2023-04-08T13:14:02;11.80;99.90
54429;DHT22;40337;52.978;6.310;2023-04-08T13:16:28;11.90;99.90
54429;DHT22;40337;52.978;6.310;2023-04-08T13:18:53;11.80;99.90
54429;DHT22;40337;52.978;6.310;2023-04-08T13:21:19;11.90;99.90
54429;DHT22;40337;52.978;6.310;2023-04-08T13:23:45;11.90;99.90
54429;DHT22;40337;52.978;6.310;2023-04-08T13:26:11;11.90;99.90
54429;DHT22;40337;52.978;6.310;2023-04-08T13:28:37;11.90;99.90
54429;DHT22;40337;52.978;6.310;2023-04-08T13:31:02;11.80;99.90
54429;DHT22;40337;52.978;6.310;2023-04-08T13:33:28;11.80;99.90
54429;DHT22;40337;52.978;6.310;2023-04-08T13:35:53;11.80;99.90
54429;DHT22;40337;52.978;6.310;2023-04-08T13:38:19;11.70;99.90
54429;DHT22;40337;52.978;6.310;2023-04-08T13:40:44;11.80;99.90
54429;DHT22;40337;52.978;6.310;2023-04-08T13:43:10;11.80;99.90
54429;DHT22;40337;52.978;6.310;2023-04-08T13:45:35;11.80;99.90
54429;DHT22;40337;52.978;6.310;2023-04-08T13:48:01;11.90;99.90
54429;DHT22;40337;52.978;6.310;2023-04-08T13:50:27;11.90;99.90
54429;DHT22;40337;52.978;6.310;2023-04-08T13:52:52;11.80;99.90
54429;DHT22;40337;52.978;6.310;2023-04-08T13:55:18;11.90;99.90
54429;DHT22;40337;52.978;6.310;2023-04-08T13:57:43;11.90;99.90
54429;DHT22;40337;52.978;6.310;2023-04-08T14:00:09;11.90;99.90
54429;DHT22;40337;52.978;6.310;2023-04-08T14:02:35;12.00;99.90
54429;DHT22;40337;52.978;6.310;2023-04-08T14:05:00;12.00;99.90
54429;DHT22;40337;52.978;6.310;2023-04-08T14:07:26;12.00;99.90
54429;DHT22;40337;52.978;6.310;2023-04-08T14:09:52;12.00;99.90
54429;DHT22;40337;52.978;6.310;2023-04-08T14:12:17;11.90;99.90
54429;DHT22;40337;52.978;6.310;2023-04-08T14:14:43;12.00;99.90
54429;DHT22;40337;52.978;6.310;2023-04-08T14:17:08;12.00;99.90
54429;DHT22;40337;52.978;6.310;2023-04-08T14:19:34;11.90;99.90
54429;DHT22;40337;52.978;6.310;2023-04-08T14:22:00;11.90;99.90
54429;DHT22;40337;52.978;6.310;2023-04-08T14:24:25;11.90;99.90
54429;DHT22;40337;52.978;6.310;2023-04-08T14:26:51;11.90;99.90
54429;DHT22;40337;52.978;6.310;2023-04-08T14:29:17;11.80;99.90
54429;DHT22;40337;52.978;6.310;2023-04-08T14:31:42;11.70;99.90
54429;DHT22;40337;52.978;6.310;2023-04-08T14:34:08;11.70;99.90
54429;DHT22;40337;52.978;6.310;2023-04-08T14:36:33;11.70;99.90
54429;DHT22;40337;52.978;6.310;2023-04-08T14:38:59;11.70;99.90
54429;DHT22;40337;52.978;6.310;2023-04-08T14:41:24;11.80;99.90
54429;DHT22;40337;52.978;6.310;2023-04-08T14:43:51;11.90;99.90
54429;DHT22;40337;52.978;6.310;2023-04-08T14:46:18;11.90;99.90
54429;DHT22;40337;52.978;6.310;2023-04-08T14:48:44;11.90;99.90
54429;DHT22;40337;52.978;6.310;2023-04-08T14:51:09;12.00;99.90
54429;DHT22;40337;52.978;6.310;2023-04-08T14:53:35;12.10;99.90
54429;DHT22;40337;52.978;6.310;2023-04-08T14:56:00;12.10;99.90
54429;DHT22;40337;52.978;6.310;2023-04-08T14:58:26;12.10;99.90
54429;DHT22;40337;52.978;6.310;2023-04-08T15:00:52;12.20;99.90
54429;DHT22;40337;52.978;6.310;2023-04-08T15:03:17;12.20;99.90
54429;DHT22;40337;52.978;6.310;2023-04-08T15:05:43;12.10;99.90
54429;DHT22;40337;52.978;6.310;2023-04-08T15:08:10;12.10;99.90
54429;DHT22;40337;52.978;6.310;2023-04-08T15:10:35;12.10;99.90
54429;DHT22;40337;52.978;6.310;2023-04-08T15:13:01;12.10;99.90
54429;DHT22;40337;52.978;6.310;2023-04-08T15:15:27;12.10;99.90
54429;DHT22;40337;52.978;6.310;2023-04-08T15:17:52;12.10;99.90
54429;DHT22;40337;52.978;6.310;2023-04-08T15:20:18;12.10;99.90
54429;DHT22;40337;52.978;6.310;2023-04-08T15:22:44;12.10;99.90
54429;DHT22;40337;52.978;6.310;2023-04-08T15:25:11;12.10;99.90
54429;DHT22;40337;52.978;6.310;2023-04-08T15:27:36;12.10;99.90
54429;DHT22;40337;52.978;6.310;2023-04-08T15:30:04;12.10;99.90
54429;DHT22;40337;52.978;6.310;2023-04-08T15:32:30;12.10;99.90
54429;DHT22;40337;52.978;6.310;2023-04-08T15:34:56;12.10;99.90
54429;DHT22;40337;52.978;6.310;2023-04-08T15:37:22;12.10;99.90
54429;DHT22;40337;52.978;6.310;2023-04-08T15:39:48;12.00;99.90
54429;DHT22;40337;52.978;6.310;2023-04-08T15:42:13;12.00;99.90
54429;DHT22;40337;52.978;6.310;2023-04-08T15:44:39;12.00;99.90
54429;DHT22;40337;52.978;6.310;2023-04-08T15:47:05;11.90;99.90